Time;durP1;ratioP1;P1;durP2;ratioP2;P2;SDS_P1;SDS_P2;PMS_P1;PMS_P2;Temp;Humidity;BMP_temperature;BMP_pressure;BME280_temperature;BME280_humidity;BME280_pressure;Samples;Min_cycle;Max_cycle;Signal;HPM_P1;HPM_P2
2022/03/28 00:01:12;;;;;;;12.27;7.90;;;8.30;95.50;;;;;;5031705;28;20635;-62
2022/03/28 00:03:39;;;;;;;13.10;7.17;;;8.30;95.50;;;;;;5032137;28;20209;-62
2022/03/28 00:06:07;;;;;;;11.53;7.67;;;8.20;95.50;;;;;;5031812;28;20202;-61
2022/03/28 00:08:34;;;;;;;10.60;7.00;;;8.20;95.60;;;;;;5032114;28;20280;-63
2022/03/28 00:11:01;;;;;;;12.33;7.43;;;8.20;95.70;;;;;;5031866;28;20568;-62
2022/03/28 00:13:28;;;;;;;11.97;7.80;;;8.10;95.80;;;;;;5032069;28;20202;-63
2022/03/28 00:15:56;;;;;;;12.93;7.43;;;8.10;95.90;;;;;;5031689;28;20718;-63
2022/03/28 00:18:22;;;;;;;13.13;7.40;;;8.00;96.00;;;;;;5031758;28;20718;-62
2022/03/28 00:20:50;;;;;;;10.30;7.00;;;8.00;96.30;;;;;;5031590;28;20606;-62
2022/03/28 00:23:17;;;;;;;9.93;6.97;;;7.90;96.50;;;;;;5032085;28;20234;-62
2022/03/28 00:25:45;;;;;;;12.43;8.10;;;7.80;96.70;;;;;;5032025;28;20650;-63
2022/03/28 00:28:12;;;;;;;12.27;7.20;;;7.70;96.90;;;;;;5031912;28;20640;-61
2022/03/28 00:30:39;;;;;;;13.67;8.37;;;7.70;97.10;;;;;;5031636;28;20241;-62
2022/03/28 00:33:07;;;;;;;13.03;8.23;;;7.60;97.20;;;;;;5031999;28;20221;-62
2022/03/28 00:35:35;;;;;;;14.40;8.67;;;7.60;97.50;;;;;;5031633;28;20686;-62
2022/03/28 00:38:02;;;;;;;16.93;10.77;;;7.60;97.50;;;;;;5031585;28;20718;-62
2022/03/28 00:40:31;;;;;;;29.40;14.87;;;7.50;97.60;;;;;;5031584;28;20263;-62
2022/03/28 00:42:59;;;;;;;22.77;13.10;;;7.50;97.80;;;;;;5031682;28;20292;-62
2022/03/28 00:45:26;;;;;;;20.30;11.10;;;7.40;97.90;;;;;;5031918;28;20209;-62
2022/03/28 00:47:53;;;;;;;11.03;7.60;;;7.40;98.00;;;;;;5031473;28;20300;-62
2022/03/28 00:50:21;;;;;;;14.67;8.23;;;7.40;98.30;;;;;;5031568;28;20210;-62
2022/03/28 00:52:48;;;;;;;12.43;8.57;;;7.30;98.60;;;;;;5031596;28;20210;-62
2022/03/28 00:55:15;;;;;;;12.23;7.20;;;7.20;98.80;;;;;;5031551;28;20279;-62
2022/03/28 00:57:42;;;;;;;11.83;7.17;;;7.20;99.10;;;;;;5031438;28;20233;-62
2022/03/28 01:00:10;;;;;;;11.03;6.70;;;7.20;99.30;;;;;;5031406;28;20670;-62
2022/03/28 01:02:37;;;;;;;13.30;8.37;;;7.20;99.50;;;;;;5031398;28;20230;-63
2022/03/28 01:05:05;;;;;;;10.50;7.10;;;7.10;99.50;;;;;;5031606;28;20256;-63
2022/03/28 01:07:33;;;;;;;8.77;6.70;;;7.20;99.50;;;;;;5031268;28;20226;-61
2022/03/28 01:10:02;;;;;;;10.80;7.23;;;7.10;99.60;;;;;;5031628;28;20206;-61
2022/03/28 01:12:31;;;;;;;10.80;6.87;;;7.10;99.90;;;;;;5031436;28;20221;-61
2022/03/28 01:14:58;;;;;;;10.63;7.20;;;7.00;99.90;;;;;;5031388;28;20756;-63
2022/03/28 01:20:12;;;;;;;11.40;6.90;;;6.90;99.90;;;;;;5005675;28;20196;-63
2022/03/28 01:22:40;;;;;;;11.50;7.17;;;7.00;99.90;;;;;;5031125;28;20261;-62
2022/03/28 01:25:08;;;;;;;9.90;7.07;;;7.00;99.90;;;;;;5031290;28;20626;-63
2022/03/28 01:27:37;;;;;;;11.40;7.10;;;7.00;99.90;;;;;;5032352;28;20252;-64
2022/03/28 01:30:04;;;;;;;11.20;7.23;;;7.10;99.90;;;;;;5035041;28;20297;-63
2022/03/28 01:32:31;;;;;;;9.20;6.63;;;7.00;99.90;;;;;;5034901;28;20210;-63
2022/03/28 01:34:58;;;;;;;9.23;6.47;;;7.00;99.90;;;;;;5034525;28;20229;-63
2022/03/28 01:37:24;;;;;;;10.47;6.93;;;7.00;99.90;;;;;;5034525;28;20241;-63
2022/03/28 01:39:52;;;;;;;8.67;6.60;;;7.00;99.90;;;;;;5034540;28;20206;-62
2022/03/28 01:42:19;;;;;;;10.07;7.30;;;6.90;99.90;;;;;;5034533;28;20221;-63
2022/03/28 01:44:50;;;;;;;11.47;7.23;;;6.90;99.90;;;;;;5034632;28;20206;-63
2022/03/28 01:47:17;;;;;;;10.57;7.07;;;6.90;99.90;;;;;;5059285;22;20321;-62
2022/03/28 01:49:44;;;;;;;10.33;6.70;;;6.80;99.90;;;;;;5033827;28;20308;-63
2022/03/28 01:52:10;;;;;;;9.13;6.93;;;6.80;99.90;;;;;;5034447;28;20252;-63
2022/03/28 01:54:37;;;;;;;10.77;7.10;;;6.80;99.90;;;;;;5034685;28;20210;-64
2022/03/28 01:57:10;;;;;;;8.57;6.43;;;6.70;99.90;;;;;;5034390;28;20643;-63
2022/03/28 01:59:37;;;;;;;9.57;7.07;;;6.70;99.90;;;;;;5034929;28;20235;-63
2022/03/28 02:02:04;;;;;;;10.03;7.40;;;6.70;99.90;;;;;;5034381;28;20206;-63
2022/03/28 02:04:32;;;;;;;10.10;7.10;;;6.60;99.90;;;;;;5034333;28;20621;-63
2022/03/28 02:06:59;;;;;;;11.40;7.30;;;6.70;99.90;;;;;;5034299;28;20252;-63
2022/03/28 02:09:25;;;;;;;12.13;6.93;;;6.70;99.90;;;;;;5034490;28;20226;-63
2022/03/28 02:11:52;;;;;;;11.20;6.73;;;6.80;99.90;;;;;;5034486;28;20206;-63
2022/03/28 02:14:20;;;;;;;11.33;7.10;;;6.90;99.90;;;;;;5034558;28;20237;-63
2022/03/28 02:16:47;;;;;;;12.80;7.50;;;6.80;99.90;;;;;;5034000;28;20640;-63
2022/03/28 02:19:14;;;;;;;9.73;6.57;;;6.80;99.90;;;;;;5034129;28;20709;-63
2022/03/28 02:21:40;;;;;;;10.33;7.13;;;6.70;99.90;;;;;;5034114;28;20289;-63
2022/03/28 02:24:07;;;;;;;9.63;6.93;;;6.70;99.90;;;;;;5034324;28;20206;-63
2022/03/28 02:26:34;;;;;;;9.70;7.20;;;6.60;99.90;;;;;;5034290;28;20213;-63
2022/03/28 02:29:01;;;;;;;10.27;6.93;;;6.70;99.90;;;;;;5034529;28;20222;-63
2022/03/28 02:31:30;;;;;;;11.73;7.27;;;6.70;99.90;;;;;;5034232;28;20438;-63
2022/03/28 02:33:56;;;;;;;10.13;7.20;;;6.70;99.90;;;;;;5033763;28;20268;-63
2022/03/28 02:36:23;;;;;;;9.53;6.83;;;6.70;99.90;;;;;;5033876;28;20587;-63
2022/03/28 02:38:49;;;;;;;13.47;7.37;;;6.60;99.90;;;;;;5032820;28;20296;-62
2022/03/28 02:41:16;;;;;;;12.03;7.20;;;6.50;99.90;;;;;;5034142;28;20288;-62
2022/03/28 02:43:43;;;;;;;8.70;6.83;;;6.50;99.90;;;;;;5034145;28;20210;-62
2022/03/28 02:46:10;;;;;;;10.57;7.13;;;6.50;99.90;;;;;;5034311;28;20202;-62
2022/03/28 02:48:38;;;;;;;11.17;7.40;;;6.50;99.90;;;;;;5034051;28;20283;-62
2022/03/28 02:51:05;;;;;;;12.50;6.83;;;6.50;99.90;;;;;;5034327;28;20206;-62
2022/03/28 02:53:32;;;;;;;12.87;7.30;;;6.30;99.90;;;;;;5034547;28;20206;-63
2022/03/28 02:55:59;;;;;;;10.50;7.50;;;6.20;99.90;;;;;;5034866;28;20556;-62
2022/03/28 02:58:26;;;;;;;13.00;7.67;;;6.10;99.90;;;;;;5035125;28;20325;-63
2022/03/28 03:00:53;;;;;;;11.40;7.17;;;6.10;99.90;;;;;;5033461;28;20214;-63
2022/03/28 03:03:19;;;;;;;12.13;7.63;;;6.10;99.90;;;;;;5033274;28;20210;-63
2022/03/28 03:05:49;;;;;;;13.77;7.80;;;6.20;99.90;;;;;;5033299;28;20644;-63
2022/03/28 03:08:16;;;;;;;14.37;8.00;;;6.10;99.90;;;;;;5033289;28;20760;-63
2022/03/28 03:10:43;;;;;;;11.93;7.83;;;6.10;99.90;;;;;;5033166;28;20293;-63
2022/03/28 03:13:10;;;;;;;11.80;7.53;;;6.10;99.90;;;;;;5033680;28;20206;-63
2022/03/28 03:15:38;;;;;;;11.20;7.73;;;6.00;99.90;;;;;;5033128;28;20544;-63
2022/03/28 03:18:05;;;;;;;11.23;8.23;;;5.90;99.90;;;;;;5033108;28;20710;-63
2022/03/28 03:20:32;;;;;;;14.10;7.87;;;5.80;99.90;;;;;;5033244;28;20230;-63
2022/03/28 03:23:01;;;;;;;15.10;8.57;;;5.80;99.90;;;;;;5034269;28;20206;-63
2022/03/28 03:25:28;;;;;;;13.37;8.00;;;5.80;99.90;;;;;;5040581;28;20293;-63
2022/03/28 03:27:55;;;;;;;11.57;7.67;;;5.70;99.90;;;;;;5040551;28;20230;-63
2022/03/28 03:30:22;;;;;;;10.57;7.43;;;5.60;99.90;;;;;;5040903;28;20198;-64
2022/03/28 03:32:49;;;;;;;9.83;7.17;;;5.50;99.90;;;;;;5034233;28;20206;-63
2022/03/28 03:35:16;;;;;;;13.30;8.50;;;5.60;99.90;;;;;;5034301;28;20229;-63
2022/03/28 03:37:42;;;;;;;10.80;7.83;;;5.50;99.90;;;;;;5033138;28;20222;-63
2022/03/28 03:40:13;;;;;;;12.53;8.37;;;5.60;99.90;;;;;;5033374;28;20681;-63
2022/03/28 03:42:40;;;;;;;15.70;8.37;;;5.50;99.90;;;;;;5032793;28;20626;-63
2022/03/28 03:45:08;;;;;;;11.30;8.10;;;5.60;99.90;;;;;;5033448;28;20747;-63
2022/03/28 03:47:35;;;;;;;15.00;9.33;;;5.50;99.90;;;;;;5033238;28;20603;-63
2022/03/28 03:50:02;;;;;;;12.73;8.57;;;5.50;99.90;;;;;;5032804;28;20619;-63
2022/03/28 03:52:29;;;;;;;13.40;9.47;;;5.50;99.90;;;;;;5032690;28;20689;-64
2022/03/28 03:54:56;;;;;;;17.33;10.70;;;5.60;99.90;;;;;;5032796;28;20233;-63
2022/03/28 03:57:24;;;;;;;15.63;9.40;;;5.60;99.90;;;;;;5032501;28;20237;-63
2022/03/28 03:59:51;;;;;;;12.93;8.63;;;5.50;99.90;;;;;;5032833;28;20206;-63
2022/03/28 04:02:18;;;;;;;15.00;9.33;;;5.50;99.90;;;;;;5032349;28;20634;-63
2022/03/28 04:04:44;;;;;;;14.30;9.73;;;5.50;99.90;;;;;;5032666;28;20314;-63
2022/03/28 04:07:11;;;;;;;14.50;9.93;;;5.60;99.90;;;;;;5032583;28;20289;-63
2022/03/28 04:09:38;;;;;;;17.17;10.03;;;5.60;99.90;;;;;;5032276;28;20230;-64
2022/03/28 04:12:06;;;;;;;18.63;11.30;;;5.60;99.90;;;;;;5032065;28;20212;-64
2022/03/28 04:14:34;;;;;;;15.83;11.17;;;5.70;99.90;;;;;;5032572;28;20296;-63
2022/03/28 04:17:01;;;;;;;16.30;11.67;;;5.70;99.90;;;;;;5032464;28;20230;-63
2022/03/28 04:19:27;;;;;;;15.33;9.63;;;5.80;99.90;;;;;;5032081;28;20230;-63
2022/03/28 04:21:54;;;;;;;13.87;8.80;;;5.80;99.90;;;;;;5031897;28;20351;-64
2022/03/28 04:24:21;;;;;;;15.60;9.33;;;5.80;99.90;;;;;;5032138;28;20603;-63
2022/03/28 04:26:48;;;;;;;14.40;9.27;;;5.80;99.90;;;;;;5032611;28;20314;-63
2022/03/28 04:29:14;;;;;;;17.67;9.67;;;5.90;99.90;;;;;;5032220;28;20227;-64
2022/03/28 04:31:42;;;;;;;14.80;9.63;;;5.90;99.90;;;;;;5031959;28;20217;-63
2022/03/28 04:34:10;;;;;;;15.20;8.97;;;5.90;99.90;;;;;;5032191;28;20592;-63
2022/03/28 04:36:37;;;;;;;15.23;9.67;;;6.00;99.90;;;;;;5032054;28;20321;-64
2022/03/28 04:39:04;;;;;;;16.97;9.23;;;6.10;99.90;;;;;;5031755;28;20701;-63
2022/03/28 04:41:31;;;;;;;13.93;9.70;;;6.20;99.90;;;;;;5031994;28;20217;-63
2022/03/28 04:43:57;;;;;;;14.10;9.53;;;6.20;99.90;;;;;;5031741;28;20689;-63
2022/03/28 04:46:24;;;;;;;17.63;10.23;;;6.30;99.90;;;;;;5031959;28;20202;-63
2022/03/28 04:48:52;;;;;;;12.17;9.03;;;6.30;99.90;;;;;;5031689;28;20304;-63
2022/03/28 04:51:19;;;;;;;17.83;9.20;;;6.30;99.90;;;;;;5031601;28;20225;-63
2022/03/28 04:53:46;;;;;;;13.50;9.40;;;6.40;99.90;;;;;;5031637;28;20202;-63
2022/03/28 04:56:12;;;;;;;15.37;9.70;;;6.50;99.90;;;;;;5031832;28;20238;-63
2022/03/28 04:58:39;;;;;;;16.60;9.60;;;6.50;99.90;;;;;;5031701;28;20226;-63
2022/03/28 05:01:06;;;;;;;14.43;10.13;;;6.40;99.90;;;;;;5031543;28;20640;-64
2022/03/28 05:03:32;;;;;;;23.17;10.50;;;6.50;99.90;;;;;;5034632;28;20217;-63
2022/03/28 05:06:02;;;;;;;13.87;9.50;;;6.60;99.90;;;;;;5035491;28;20728;-64
2022/03/28 05:08:29;;;;;;;13.63;9.10;;;6.60;99.90;;;;;;5035372;28;20721;-64
2022/03/28 05:10:55;;;;;;;17.83;9.87;;;6.60;99.90;;;;;;5035431;28;20202;-64
2022/03/28 05:13:25;;;;;;;13.07;8.97;;;6.50;99.90;;;;;;5035566;28;20263;-64
2022/03/28 05:15:52;;;;;;;14.73;9.20;;;6.60;99.90;;;;;;5035571;28;20490;-64
2022/03/28 05:18:19;;;;;;;16.17;9.07;;;6.60;99.90;;;;;;5035126;28;20226;-63
2022/03/28 05:20:45;;;;;;;17.93;8.90;;;6.80;99.90;;;;;;5035030;28;20206;-64
2022/03/28 05:23:13;;;;;;;13.70;8.43;;;6.80;99.90;;;;;;5035306;28;20209;-65
2022/03/28 05:25:40;;;;;;;15.93;8.83;;;6.80;99.90;;;;;;5035068;28;20689;-63
2022/03/28 05:28:07;;;;;;;13.63;8.13;;;6.80;99.90;;;;;;5035107;28;20277;-62
2022/03/28 05:30:34;;;;;;;12.23;8.93;;;6.80;99.90;;;;;;5035011;28;20217;-63
2022/03/28 05:33:00;;;;;;;13.53;8.70;;;6.80;99.90;;;;;;5034825;28;20210;-63
2022/03/28 05:35:28;;;;;;;16.10;8.87;;;6.80;99.90;;;;;;5035000;28;20262;-63
2022/03/28 05:37:55;;;;;;;14.67;9.10;;;6.70;99.90;;;;;;5034952;28;20641;-63
2022/03/28 05:40:23;;;;;;;19.03;8.97;;;6.70;99.90;;;;;;5035147;28;20217;-64
2022/03/28 05:42:49;;;;;;;13.00;8.27;;;6.70;99.90;;;;;;5034615;28;20256;-63
2022/03/28 05:45:16;;;;;;;15.03;9.13;;;6.60;99.90;;;;;;5034841;28;20210;-62
2022/03/28 05:47:43;;;;;;;16.67;8.80;;;6.70;99.90;;;;;;5034346;28;20238;-63
2022/03/28 05:50:10;;;;;;;16.27;8.60;;;6.70;99.90;;;;;;5034532;28;20674;-64
2022/03/28 05:52:37;;;;;;;16.53;8.83;;;6.90;99.90;;;;;;5034286;28;20210;-63
2022/03/28 05:55:04;;;;;;;16.03;9.40;;;7.10;99.90;;;;;;5034280;28;20728;-63
2022/03/28 05:57:33;;;;;;;15.57;9.00;;;7.40;99.90;;;;;;5034229;28;20280;-63
2022/03/28 05:59:59;;;;;;;20.03;9.30;;;7.60;99.90;;;;;;5034264;28;20740;-63
2022/03/28 06:02:26;;;;;;;18.10;8.97;;;7.70;99.90;;;;;;5033929;28;20258;-63
2022/03/28 06:04:53;;;;;;;15.13;8.73;;;7.70;99.90;;;;;;5034343;28;20210;-63
2022/03/28 06:07:19;;;;;;;15.43;8.90;;;7.80;99.90;;;;;;5034192;28;20202;-63
2022/03/28 06:09:46;;;;;;;14.43;9.37;;;7.90;99.90;;;;;;5034403;28;20211;-63
2022/03/28 06:12:13;;;;;;;12.27;9.03;;;8.20;99.90;;;;;;5034222;28;20289;-63
2022/03/28 06:14:41;;;;;;;17.17;10.03;;;9.00;99.90;;;;;;5033924;28;20202;-63
2022/03/28 06:17:08;;;;;;;19.63;10.30;;;9.80;99.00;;;;;;5033648;28;20226;-63
2022/03/28 06:19:34;;;;;;;13.73;9.27;;;10.70;96.70;;;;;;5033916;28;20230;-63
2022/03/28 06:22:01;;;;;;;13.40;8.90;;;11.60;94.90;;;;;;5033740;28;20264;-63
2022/03/28 06:24:28;;;;;;;13.57;9.10;;;12.30;93.20;;;;;;5033654;28;20206;-61
2022/03/28 06:26:54;;;;;;;15.30;8.87;;;12.90;92.00;;;;;;5033595;28;20206;-61
2022/03/28 06:29:21;;;;;;;16.40;9.70;;;13.20;91.00;;;;;;5033461;28;20226;-61
2022/03/28 06:31:49;;;;;;;16.17;9.33;;;13.30;90.80;;;;;;5033726;28;20445;-61
2022/03/28 06:34:16;;;;;;;13.27;8.10;;;13.60;90.30;;;;;;5033814;28;20389;-61
2022/03/28 06:36:44;;;;;;;18.80;10.00;;;14.20;89.30;;;;;;5033296;28;20758;-61
2022/03/28 06:39:11;;;;;;;19.73;12.83;;;14.90;88.10;;;;;;5033276;28;20724;-62
2022/03/28 06:41:38;;;;;;;15.33;8.90;;;15.90;84.80;;;;;;5033073;28;20206;-61
2022/03/28 06:44:07;;;;;;;14.93;9.00;;;16.80;81.10;;;;;;5033148;28;20202;-61
2022/03/28 06:46:34;;;;;;;12.93;8.53;;;17.60;79.40;;;;;;5033015;28;20261;-63
2022/03/28 06:49:02;;;;;;;15.75;9.15;;;18.40;75.70;;;;;;5033082;28;20238;-62
2022/03/28 06:51:29;;;;;;;18.90;9.43;;;18.90;74.40;;;;;;5033123;28;20210;-62
2022/03/28 06:53:56;;;;;;;17.40;9.15;;;19.40;70.20;;;;;;5033329;28;20209;-63
2022/03/28 06:56:22;;;;;;;16.77;9.23;;;19.40;68.80;;;;;;5033399;28;20624;-62
2022/03/28 06:58:49;;;;;;;13.60;9.15;;;19.10;67.90;;;;;;5033427;28;20229;-62
2022/03/28 07:01:16;;;;;;;15.30;9.23;;;18.70;67.90;;;;;;5033383;28;20264;-62
2022/03/28 07:03:42;;;;;;;16.00;8.98;;;18.70;66.90;;;;;;5033278;28;20210;-62
2022/03/28 07:06:10;;;;;;;13.77;9.18;;;19.00;66.90;;;;;;5033239;28;20242;-62
2022/03/28 07:08:37;;;;;;;14.77;9.93;;;19.20;66.50;;;;;;5032805;28;20222;-63
2022/03/28 07:11:04;;;;;;;15.85;8.40;;;19.50;65.00;;;;;;5032758;28;20666;-62
2022/03/28 07:13:31;;;;;;;15.85;9.05;;;20.00;62.70;;;;;;5034121;28;20582;-62
2022/03/28 07:15:58;;;;;;;12.27;8.70;;;20.20;61.60;;;;;;5032975;28;20214;-62
2022/03/28 07:18:25;;;;;;;14.65;9.00;;;20.30;62.10;;;;;;5032956;28;20226;-62
2022/03/28 07:20:51;;;;;;;17.58;8.90;;;20.40;62.10;;;;;;5032786;28;20264;-62
2022/03/28 07:23:19;;;;;;;14.68;9.30;;;20.50;61.30;;;;;;5032524;28;20206;-62
2022/03/28 07:25:47;;;;;;;16.15;9.23;;;21.00;59.80;;;;;;5031790;28;20579;-63
2022/03/28 07:28:17;;;;;;;14.00;8.85;;;21.20;59.10;;;;;;5032677;28;20250;-62
2022/03/28 07:30:43;;;;;;;17.60;10.07;;;21.40;59.10;;;;;;5032382;28;20217;-62
2022/03/28 07:33:10;;;;;;;17.02;9.32;;;21.60;58.40;;;;;;5032538;28;20288;-62
2022/03/28 07:35:38;;;;;;;13.30;9.45;;;21.90;57.90;;;;;;5032518;28;20711;-63
2022/03/28 07:38:08;;;;;;;14.90;9.88;;;22.10;56.80;;;;;;5032044;28;20233;-62
2022/03/28 07:40:37;;;;;;;15.25;10.10;;;22.30;56.60;;;;;;5032110;28;20210;-63
2022/03/28 07:43:04;;;;;;;18.02;10.10;;;22.40;55.80;;;;;;5031968;28;20684;-62
2022/03/28 07:45:30;;;;;;;15.35;9.77;;;22.60;55.50;;;;;;5032504;28;20240;-59
2022/03/28 07:47:57;;;;;;;12.85;9.27;;;23.10;54.70;;;;;;5032273;28;20283;-59
2022/03/28 07:50:24;;;;;;;14.48;9.90;;;23.90;53.80;;;;;;5032012;28;20674;-59
2022/03/28 07:52:51;;;;;;;15.35;9.07;;;24.60;51.70;;;;;;5031790;28;20256;-59
2022/03/28 07:55:18;;;;;;;16.20;9.80;;;25.00;51.30;;;;;;5031986;28;20264;-59
2022/03/28 07:57:46;;;;;;;13.35;9.43;;;25.60;50.10;;;;;;5031689;28;20728;-59
2022/03/28 08:00:15;;;;;;;15.32;9.65;;;26.00;49.20;;;;;;5032248;28;20242;-59
2022/03/28 08:02:43;;;;;;;14.50;10.00;;;26.20;48.40;;;;;;5031979;28;20209;-59
2022/03/28 08:05:10;;;;;;;13.82;9.52;;;26.00;48.50;;;;;;5031882;28;20257;-59
2022/03/28 08:07:37;;;;;;;19.23;10.07;;;25.30;49.10;;;;;;5031665;28;20230;-59
2022/03/28 08:10:06;;;;;;;14.82;8.85;;;24.40;52.40;;;;;;5031491;28;20689;-59
2022/03/28 08:12:33;;;;;;;16.38;9.98;;;23.20;55.00;;;;;;5031951;28;20214;-59
2022/03/28 08:15:01;;;;;;;13.90;10.15;;;21.70;57.40;;;;;;5032405;28;20241;-58
2022/03/28 08:17:27;;;;;;;23.58;11.98;;;20.50;58.60;;;;;;5031652;28;20226;-58
2022/03/28 08:19:54;;;;;;;20.52;10.68;;;18.80;62.30;;;;;;5031806;28;20236;-58
2022/03/28 08:22:21;;;;;;;16.85;10.10;;;17.40;64.40;;;;;;5031555;28;20209;-58
2022/03/28 08:24:47;;;;;;;18.70;10.13;;;17.20;65.90;;;;;;5031585;28;20736;-58
2022/03/28 08:27:14;;;;;;;16.63;9.90;;;17.30;65.30;;;;;;5031708;28;20229;-58
2022/03/28 08:29:41;;;;;;;17.60;10.20;;;17.30;64.70;;;;;;5031775;28;20214;-58
2022/03/28 08:32:09;;;;;;;15.55;10.73;;;17.10;64.50;;;;;;5031387;28;20202;-58
2022/03/28 08:34:36;;;;;;;21.13;10.82;;;16.80;65.10;;;;;;5031598;28;20288;-58
2022/03/28 08:37:03;;;;;;;18.48;10.60;;;16.70;66.10;;;;;;5033845;28;20283;-58
2022/03/28 08:39:30;;;;;;;18.60;11.35;;;16.50;66.40;;;;;;5035681;28;20237;-58
2022/03/28 08:41:57;;;;;;;19.67;10.43;;;16.60;66.20;;;;;;5035514;28;20229;-58
2022/03/28 08:44:26;;;;;;;19.92;11.00;;;16.70;66.30;;;;;;5035515;28;20256;-58
2022/03/28 08:46:55;;;;;;;17.13;10.20;;;16.60;67.20;;;;;;5035467;28;20206;-58
2022/03/28 08:49:24;;;;;;;17.05;10.52;;;16.50;67.40;;;;;;5035278;28;20230;-58
2022/03/28 08:51:52;;;;;;;14.77;9.68;;;16.70;66.90;;;;;;5035494;28;20216;-58
2022/03/28 08:54:19;;;;;;;16.70;10.30;;;16.70;66.10;;;;;;5034960;28;20217;-59
2022/03/28 08:56:47;;;;;;;20.48;11.15;;;16.60;66.70;;;;;;5032832;28;20237;-66
2022/03/28 08:59:13;;;;;;;21.08;10.65;;;16.30;67.00;;;;;;5034718;28;20717;-63
2022/03/28 09:01:41;;;;;;;16.30;10.60;;;16.40;66.80;;;;;;5034458;28;20210;-61
2022/03/28 09:04:09;;;;;;;21.50;12.02;;;16.30;66.40;;;;;;5034631;28;20202;-62
2022/03/28 09:06:38;;;;;;;19.08;11.25;;;16.30;65.70;;;;;;5034823;28;20217;-63
2022/03/28 09:09:17;;;;;;;18.95;11.00;;;16.60;65.90;;;;;;5034915;28;20273;-60
2022/03/28 09:11:45;;;;;;;17.60;11.18;;;16.80;66.20;;;;;;5034818;28;20632;-64
2022/03/28 09:14:13;;;;;;;22.52;11.75;;;17.00;65.00;;;;;;5034773;28;20629;-63
2022/03/28 09:16:40;;;;;;;20.13;11.55;;;17.00;64.70;;;;;;5035142;28;20203;-63
2022/03/28 09:19:10;;;;;;;22.25;13.05;;;16.90;65.10;;;;;;5034951;28;20634;-62
2022/03/28 09:21:38;;;;;;;21.23;12.20;;;17.00;65.40;;;;;;5034981;28;20210;-62
2022/03/28 09:24:10;;;;;;;19.90;12.82;;;17.30;64.00;;;;;;5035035;28;20206;-62
2022/03/28 09:26:37;;;;;;;18.20;12.00;;;17.30;62.70;;;;;;5034741;28;20216;-63
2022/03/28 09:29:06;;;;;;;17.63;12.23;;;17.20;63.20;;;;;;5034663;28;20223;-63
2022/03/28 09:31:34;;;;;;;18.75;12.30;;;17.30;62.70;;;;;;5034840;28;20211;-63
2022/03/28 09:34:09;;;;;;;20.08;11.82;;;17.30;63.80;;;;;;5034612;28;20206;-63
2022/03/28 09:36:48;;;;;;;21.10;11.90;;;17.40;62.10;;;;;;5034676;28;20236;-63
2022/03/28 09:39:17;;;;;;;20.83;12.13;;;17.30;60.80;;;;;;5034689;28;20284;-64
2022/03/28 09:41:46;;;;;;;21.60;13.10;;;17.30;61.60;;;;;;5034199;28;20245;-64
2022/03/28 09:44:13;;;;;;;18.60;12.90;;;17.50;60.90;;;;;;5034799;28;20206;-64
2022/03/28 09:46:40;;;;;;;19.13;11.80;;;17.80;60.30;;;;;;5034246;28;20689;-64
2022/03/28 09:49:08;;;;;;;17.70;12.52;;;18.10;60.30;;;;;;5033580;28;20233;-66
2022/03/28 09:51:36;;;;;;;22.83;13.07;;;18.40;60.00;;;;;;5033855;28;20202;-64
2022/03/28 09:54:19;;;;;;;21.55;12.68;;;18.50;58.80;;;;;;5034006;28;20206;-64
2022/03/28 09:57:07;;;;;;;21.65;13.07;;;18.70;58.50;;;;;;5034226;28;20209;-64
2022/03/28 09:59:38;;;;;;;20.60;13.15;;;18.70;57.90;;;;;;5034034;28;20238;-61
2022/03/28 10:02:15;;;;;;;21.25;13.07;;;18.50;57.80;;;;;;5033554;28;20649;-62
2022/03/28 10:04:44;;;;;;;25.33;13.18;;;18.30;58.00;;;;;;5033818;28;20248;-61
2022/03/28 10:07:12;;;;;;;21.52;12.65;;;18.30;57.80;;;;;;5033465;28;20213;-64
2022/03/28 10:09:40;;;;;;;23.85;13.45;;;18.40;57.40;;;;;;5033659;28;20230;-65
2022/03/28 10:12:08;;;;;;;22.55;12.93;;;18.50;57.50;;;;;;5033431;28;20209;-62
2022/03/28 10:14:35;;;;;;;21.42;12.68;;;18.50;58.00;;;;;;5034063;28;20253;-62
2022/03/28 10:17:03;;;;;;;19.83;12.88;;;18.50;56.40;;;;;;5033290;28;20214;-65
2022/03/28 10:19:32;;;;;;;20.52;13.27;;;18.60;56.80;;;;;;5033617;28;20325;-61
2022/03/28 10:22:02;;;;;;;22.90;13.55;;;18.70;56.80;;;;;;5033183;28;20339;-61
2022/03/28 10:24:33;;;;;;;21.63;13.73;;;18.90;56.50;;;;;;5033675;28;20210;-60
2022/03/28 10:27:03;;;;;;;21.35;13.13;;;19.20;55.80;;;;;;5032917;28;20613;-61
2022/03/28 10:29:35;;;;;;;24.52;13.70;;;19.40;55.60;;;;;;5033380;28;20218;-61
2022/03/28 10:32:07;;;;;;;23.42;12.68;;;19.50;54.60;;;;;;5033333;28;20520;-59
2022/03/28 10:34:41;;;;;;;20.13;12.80;;;19.60;54.30;;;;;;5033471;28;20210;-62
2022/03/28 10:37:33;;;;;;;20.73;14.50;;;19.90;54.40;;;;;;5033230;28;20206;-62
2022/03/28 10:40:23;;;;;;;20.27;12.20;;;20.00;54.50;;;;;;5033435;28;20253;-62
2022/03/28 10:42:55;;;;;;;23.17;12.77;;;20.10;54.10;;;;;;5032710;28;20214;-62
2022/03/28 10:45:31;;;;;;;20.60;12.48;;;20.30;54.10;;;;;;5033136;28;20588;-62
2022/03/28 10:47:59;;;;;;;21.05;13.38;;;20.50;53.80;;;;;;5032704;28;20229;-60
2022/03/28 10:50:29;;;;;;;20.02;13.30;;;20.70;54.10;;;;;;5033221;28;20207;-60
2022/03/28 10:53:11;;;;;;;19.70;12.93;;;21.00;53.20;;;;;;5033285;28;20234;-61
2022/03/28 10:55:43;;;;;;;20.02;13.90;;;21.10;53.00;;;;;;5032961;28;20210;-59
2022/03/28 10:58:17;;;;;;;22.80;13.30;;;21.00;53.70;;;;;;5032656;28;20264;-59
2022/03/28 11:01:20;;;;;;;21.40;13.77;;;21.10;53.10;;;;;;5032308;28;20379;-60
2022/03/28 11:03:49;;;;;;;19.38;13.57;;;21.10;52.40;;;;;;5032976;28;20673;-60
2022/03/28 11:06:18;;;;;;;22.67;14.18;;;20.90;52.70;;;;;;5032495;28;20202;-60
2022/03/28 11:08:47;;;;;;;16.33;11.80;;;20.70;53.40;;;;;;5032669;28;20223;-65
2022/03/28 11:11:15;;;;;;;22.48;12.27;;;20.70;52.80;;;;;;5032902;28;20210;-62
2022/03/28 11:13:43;;;;;;;17.10;12.48;;;20.80;52.30;;;;;;5032546;28;20214;-64
2022/03/28 11:16:19;;;;;;;18.42;12.52;;;21.00;52.40;;;;;;5032568;28;20221;-63
2022/03/28 11:19:01;;;;;;;16.60;11.68;;;21.20;52.10;;;;;;5032090;28;20241;-62
2022/03/28 11:21:27;;;;;;;20.60;12.52;;;21.40;52.00;;;;;;5031339;28;20782;-64
2022/03/28 11:24:08;;;;;;;17.35;12.02;;;21.30;51.80;;;;;;5032032;28;20206;-60
2022/03/28 11:26:36;;;;;;;21.85;13.00;;;21.20;51.40;;;;;;5032773;28;20201;-64
2022/03/28 11:29:07;;;;;;;18.65;12.23;;;21.00;51.60;;;;;;5032526;28;20276;-64
2022/03/28 11:31:36;;;;;;;18.48;12.48;;;21.00;51.50;;;;;;5032170;28;20210;-62
2022/03/28 11:34:09;;;;;;;19.20;12.80;;;21.00;51.50;;;;;;5033199;28;20214;-63
2022/03/28 11:36:37;;;;;;;20.98;12.98;;;21.20;52.00;;;;;;5032536;28;20210;-63
2022/03/28 11:39:04;;;;;;;23.02;12.60;;;21.30;51.10;;;;;;5032306;28;20710;-63
2022/03/28 11:41:32;;;;;;;20.17;12.88;;;21.20;51.00;;;;;;5032024;28;20579;-63
2022/03/28 11:43:59;;;;;;;17.30;11.68;;;21.10;51.70;;;;;;5031722;28;20202;-64
2022/03/28 11:46:30;;;;;;;20.30;11.93;;;21.30;51.40;;;;;;5032010;28;20643;-60
2022/03/28 11:48:59;;;;;;;21.60;12.45;;;21.40;52.00;;;;;;5032194;28;20262;-60
2022/03/28 11:51:27;;;;;;;20.40;12.98;;;21.60;51.90;;;;;;5031615;28;20213;-59
2022/03/28 11:53:54;;;;;;;19.75;13.23;;;21.70;51.60;;;;;;5032651;28;20617;-59
2022/03/28 11:56:25;;;;;;;20.95;12.60;;;21.80;51.70;;;;;;5032212;28;20214;-59
2022/03/28 11:58:59;;;;;;;22.42;13.07;;;21.70;51.50;;;;;;5032258;28;20226;-59
2022/03/28 12:01:29;;;;;;;20.38;11.90;;;21.60;51.70;;;;;;5032239;28;20206;-59
2022/03/28 12:03:55;;;;;;;16.92;12.38;;;21.50;51.90;;;;;;5031918;28;20217;-59
2022/03/28 12:06:27;;;;;;;17.85;12.82;;;21.50;51.70;;;;;;5031599;28;20210;-59
2022/03/28 12:08:54;;;;;;;21.83;13.00;;;21.70;51.40;;;;;;5032046;28;20313;-60
2022/03/28 12:11:22;;;;;;;16.83;12.50;;;21.80;51.70;;;;;;5031669;28;20251;-60
2022/03/28 12:13:49;;;;;;;20.92;12.27;;;21.70;51.90;;;;;;5032197;28;20210;-60
2022/03/28 12:16:16;;;;;;;25.60;13.63;;;21.60;51.60;;;;;;5031981;28;20625;-60
2022/03/28 12:18:44;;;;;;;21.02;12.13;;;21.60;51.70;;;;;;5031816;28;20234;-60
2022/03/28 12:21:11;;;;;;;17.75;12.27;;;21.60;51.60;;;;;;5031776;28;20217;-60
2022/03/28 12:23:38;;;;;;;18.88;12.27;;;21.70;51.10;;;;;;5031133;28;20206;-60
2022/03/28 12:26:05;;;;;;;19.00;12.45;;;21.90;51.30;;;;;;5031842;28;20206;-60
2022/03/28 12:28:34;;;;;;;21.15;12.15;;;21.90;50.10;;;;;;5031706;28;20318;-61
2022/03/28 12:31:03;;;;;;;19.77;12.05;;;21.80;51.70;;;;;;5031483;28;20206;-59
2022/03/28 12:33:32;;;;;;;20.92;13.75;;;21.80;50.90;;;;;;5031072;28;20260;-59
2022/03/28 12:36:04;;;;;;;21.38;12.40;;;21.80;51.50;;;;;;5031338;28;20272;-62
2022/03/28 12:38:34;;;;;;;21.83;12.75;;;21.80;51.60;;;;;;5031309;28;20764;-61
2022/03/28 12:41:04;;;;;;;24.38;12.25;;;21.60;51.50;;;;;;5031393;28;20625;-62
2022/03/28 12:43:33;;;;;;;22.48;13.10;;;21.60;52.00;;;;;;5030547;28;20214;-62
2022/03/28 12:46:02;;;;;;;16.75;10.10;;;21.60;52.30;;;;;;5031270;28;20614;-61